Kezdőlap
METAR-TAF:

METAR-TAF

Repülőterek :

Győr, Magyarország

földrajzi szélesség: 47-37-28N, földrajzi hosszúság: 017-48-49E, magasság: 129 m

Jelenlegi meteorológiai megfigyelések

A jelentés 34 perccel ezelõtt készült, 02:15 UTC
Szélcsend
Hőmérséklet 17°C
Páratartalom 82%
Légköri nyomás 1015 hPa
Látótávolság 10 km, vagy több
felhőtlen 1500 m magasságban, és nincs gomolyfelhõ

METAR: LHPR 210215Z AUTO 00000KT CAVOK 17/14 Q1015 RMK BLU

Idő: 04:49 (02:49 UTC)

Előrejelzés

A jelentés 9 órával és 34 perccel ezelõtt készült, 17:15 UTC
Az előrejelzés 20-én 18 óra UTC és 21-én 03 óra UTC között érvényes
Dél-délnyugati szél 6 kt
Látótávolság 10 km, vagy több
felhőtlen 1500 m magasságban, és nincs gomolyfelhõ
20-én 20 óra UTC és 20-én 23 óra UTC között fokozatosan kialakuló
Nyugati szél 6 kt

TAF: LHPR 201715Z 2018/2103 20006KT CAVOK BECMG 2020/2023 27006KT

Meteorológiai megfigyelések és előrejelzések több, mint 4000 repülőtéren (METAR és TAF jelentéseket).

A térképen piros és sárga pontok jelzik az elérhető meteorológiai állomásokat.

Mozgassa az egeret a pont fölött, hogy megjelenjen az állomás neve.

Azután kattintson az időjárási megfigyelések és előrejelzések megtekintéséhez.

A térkép megváltoztatása: kattintson a fekete keresztel jelölt zöld gombra ráközelítéshez, a vonallal jelölt zöld gombra távolításhoz, vagy a zöld nyilakra a szomszédos térképek eléréséhez.


METAR-TAF: